Time;durP1;ratioP1;P1;durP2;ratioP2;P2;SDS_P1;SDS_P2;PMS_P1;PMS_P2;Temp;Humidity;BMP_temperature;BMP_pressure;BME280_temperature;BME280_humidity;BME280_pressure;Samples;Min_cycle;Max_cycle;Signal;HPM_P1;HPM_P2
2022/02/21 00:01:12;;;;;;;2.83;1.53;;;;;;;6.95;80.32;98721.80;1725761;82;21142;-71
2022/02/21 00:03:37;;;;;;;2.80;1.50;;;;;;;6.95;80.31;98705.09;1726823;82;21796;-71
2022/02/21 00:06:03;;;;;;;1.50;1.10;;;;;;;6.94;80.34;98698.28;1729979;82;21758;-71
2022/02/21 00:08:29;;;;;;;2.20;1.60;;;;;;;6.96;80.37;98698.63;1744558;81;20920;-71
2022/02/21 00:10:56;;;;;;;1.98;1.37;;;;;;;6.96;80.48;98678.07;1743962;81;21591;-71
2022/02/21 00:13:22;;;;;;;4.10;1.83;;;;;;;6.97;80.44;98681.04;1720228;82;20981;-71
2022/02/21 00:15:47;;;;;;;1.60;1.50;;;;;;;6.99;80.46;98672.00;1723879;82;21004;-71
2022/02/21 00:18:14;;;;;;;1.70;1.40;;;;;;;6.99;80.52;98663.00;1726993;82;21051;-71
2022/02/21 00:20:40;;;;;;;3.37;1.47;;;;;;;7.00;80.44;98659.54;1734115;82;21593;-71
2022/02/21 00:23:07;;;;;;;2.90;1.57;;;;;;;7.01;80.65;98645.80;1744631;82;20985;-71
2022/02/21 00:25:34;;;;;;;1.57;1.20;;;;;;;7.02;80.56;98648.77;1720516;82;21581;-72
2022/02/21 00:28:00;;;;;;;4.45;1.25;;;;;;;7.03;80.60;98635.48;1729349;82;21095;-71
2022/02/21 00:30:26;;;;;;;2.17;1.37;;;;;;;7.04;80.63;98635.88;1724962;82;21062;-71
2022/02/21 00:32:53;;;;;;;1.67;1.55;;;;;;;7.04;80.64;98629.00;1729128;82;20955;-71
2022/02/21 00:35:18;;;;;;;2.70;1.00;;;;;;;7.06;80.66;98623.37;1717777;82;21760;-71
2022/02/21 00:37:44;;;;;;;1.53;1.10;;;;;;;7.05;80.73;98621.69;1723883;82;20913;-71
2022/02/21 00:40:12;;;;;;;2.27;1.37;;;;;;;7.06;80.75;98623.37;1729400;82;21035;-71
2022/02/21 00:42:38;;;;;;;4.08;1.40;;;;;;;7.07;80.76;98613.48;1731668;81;20999;-71
2022/02/21 00:45:09;;;;;;;1.65;1.20;;;;;;;7.07;80.77;98607.05;1729198;82;21131;-71
2022/02/21 00:47:33;;;;;;;1.35;1.20;;;;;;;7.07;80.80;98600.63;1727526;82;21119;-71
2022/02/21 00:49:59;;;;;;;1.33;1.20;;;;;;;7.09;80.84;98587.73;1729692;82;21657;-71
2022/02/21 00:52:25;;;;;;;1.33;1.10;;;;;;;7.10;80.86;98585.55;1744397;81;20969;-71
2022/02/21 00:54:51;;;;;;;2.23;1.17;;;;;;;7.11;80.84;98576.95;1744487;81;20984;-71
2022/02/21 00:57:18;;;;;;;3.65;1.55;;;;;;;7.09;80.87;98568.02;1724483;81;21051;-71
2022/02/21 00:59:44;;;;;;;2.17;1.45;;;;;;;7.10;80.92;98567.12;1736050;81;21339;-71
2022/02/21 01:02:11;;;;;;;1.30;1.20;;;;;;;7.10;80.90;98556.00;1729294;82;21546;-71
2022/02/21 01:04:39;;;;;;;2.02;1.00;;;;;;;7.10;80.92;98548.29;1724382;82;21113;-71
2022/02/21 01:07:05;;;;;;;1.65;1.25;;;;;;;7.09;81.06;98547.45;1721246;82;21115;-71
2022/02/21 01:09:32;;;;;;;1.98;1.40;;;;;;;7.08;81.00;98542.37;1724935;82;21462;-71
2022/02/21 01:11:58;;;;;;;3.70;2.07;;;;;;;7.09;81.09;98542.76;1728909;81;20918;-71
2022/02/21 01:14:24;;;;;;;2.07;1.30;;;;;;;7.08;81.10;98539.35;1735270;82;21627;-71
2022/02/21 01:16:51;;;;;;;7.15;1.30;;;;;;;7.09;81.15;98527.34;1726474;81;21040;-71
2022/02/21 01:19:20;;;;;;;2.08;1.10;;;;;;;7.09;81.19;98518.34;1728256;82;20965;-71
2022/02/21 01:21:46;;;;;;;2.90;1.50;;;;;;;7.09;81.18;98501.20;1727103;82;20909;-71
2022/02/21 01:24:12;;;;;;;1.30;0.97;;;;;;;7.08;81.23;98498.23;1733146;81;20990;-71
2022/02/21 01:26:38;;;;;;;2.20;1.27;;;;;;;7.09;81.28;98487.51;1718974;82;21044;-71
2022/02/21 01:29:05;;;;;;;2.22;1.20;;;;;;;7.07;81.37;98484.16;1708178;82;21122;-71
2022/02/21 01:31:31;;;;;;;1.45;1.15;;;;;;;7.08;81.32;98471.25;1732584;82;20952;-72
2022/02/21 01:33:57;;;;;;;1.87;0.90;;;;;;;7.08;81.25;98462.70;1740136;81;21538;-72
2022/02/21 01:36:23;;;;;;;2.47;1.10;;;;;;;7.08;81.31;98451.14;1742396;81;21000;-71
2022/02/21 01:38:49;;;;;;;2.80;1.03;;;;;;;7.07;81.35;98447.73;1732916;81;21023;-71
2022/02/21 01:41:24;;;;;;;4.35;1.22;;;;;;;7.07;81.38;98436.61;1732082;82;21056;-71
2022/02/21 01:43:49;;;;;;;1.10;1.00;;;;;;;7.08;81.37;98425.44;1719476;82;21702;-72
2022/02/21 01:46:15;;;;;;;0.90;0.77;;;;;;;7.07;81.52;98414.33;1731902;81;20887;-71
2022/02/21 01:48:43;;;;;;;0.90;0.68;;;;;;;7.08;81.61;98408.30;1711959;82;21864;-71
2022/02/21 01:51:10;;;;;;;3.07;0.83;;;;;;;7.08;81.59;98408.30;1723802;82;20870;-72
2022/02/21 01:53:36;;;;;;;1.15;0.80;;;;;;;7.08;81.56;98399.30;1715447;82;21017;-71
2022/02/21 01:56:03;;;;;;;0.88;0.62;;;;;;;7.09;81.60;98391.14;1684548;84;21054;-71
2022/02/21 01:58:30;;;;;;;1.60;1.10;;;;;;;7.06;81.58;98366.40;1714278;82;21428;-72
2022/02/21 02:00:56;;;;;;;1.30;0.78;;;;;;;7.08;81.60;98365.06;1717976;82;21547;-72
2022/02/21 02:03:22;;;;;;;22.63;2.53;;;;;;;7.08;81.60;98355.61;1720840;82;20950;-71
2022/02/21 02:05:48;;;;;;;2.08;1.02;;;;;;;7.08;81.64;98347.91;1713894;82;21128;-71
2022/02/21 02:08:14;;;;;;;1.80;0.90;;;;;;;7.10;81.65;98339.69;1716203;82;21095;-71
2022/02/21 02:10:47;;;;;;;0.72;0.72;;;;;;;7.11;81.66;98346.50;1734226;82;21468;-71
2022/02/21 02:13:13;;;;;;;4.78;0.93;;;;;;;7.11;81.71;98333.66;1745802;82;21057;-72
2022/02/21 02:15:38;;;;;;;4.00;1.10;;;;;;;7.13;81.75;98332.31;1717770;81;21044;-72
2022/02/21 02:18:05;;;;;;;1.90;0.90;;;;;;;7.14;81.78;98321.97;1715571;82;20894;-71
2022/02/21 02:20:31;;;;;;;1.85;0.98;;;;;;;7.16;81.83;98321.91;1726049;82;21103;-71
2022/02/21 02:22:57;;;;;;;1.63;1.13;;;;;;;7.18;81.84;98309.39;1726412;81;21076;-71
2022/02/21 02:25:23;;;;;;;3.85;1.40;;;;;;;7.20;81.87;98287.48;1714674;82;21187;-71
2022/02/21 02:27:49;;;;;;;1.95;1.30;;;;;;;7.22;81.91;98305.81;1736513;82;21495;-71
2022/02/21 02:30:15;;;;;;;1.70;0.80;;;;;;;7.24;81.97;98293.73;1714695;82;21079;-70
2022/02/21 02:32:41;;;;;;;1.22;0.90;;;;;;;7.24;81.91;98282.17;1711856;82;21069;-70
2022/02/21 02:35:08;;;;;;;2.72;0.95;;;;;;;7.27;81.90;98276.06;1729069;81;21072;-71
2022/02/21 02:37:35;;;;;;;2.40;1.00;;;;;;;7.28;81.94;98271.28;1722320;82;21072;-70
2022/02/21 02:40:01;;;;;;;1.37;0.78;;;;;;;7.28;81.95;98279.83;1727157;82;21061;-71
2022/02/21 02:42:27;;;;;;;1.10;0.90;;;;;;;7.29;82.04;98262.22;1744985;82;21087;-71
2022/02/21 02:44:53;;;;;;;1.60;0.63;;;;;;;7.31;81.99;98254.00;1738326;81;20917;-71
2022/02/21 02:47:19;;;;;;;1.20;0.80;;;;;;;7.30;81.96;98245.06;1737924;82;20893;-71
2022/02/21 02:49:51;;;;;;;1.62;1.00;;;;;;;7.30;82.02;98237.36;1728991;82;21033;-72
2022/02/21 02:52:17;;;;;;;1.00;0.60;;;;;;;7.31;82.06;98228.74;1721260;81;21049;-72
2022/02/21 02:54:43;;;;;;;1.37;0.70;;;;;;;7.31;82.12;98230.86;1744565;82;20973;-71
2022/02/21 02:57:09;;;;;;;1.80;1.03;;;;;;;7.30;82.09;98210.36;1735969;82;21634;-71
2022/02/21 02:59:35;;;;;;;2.80;0.90;;;;;;;7.30;82.11;98213.77;1724873;81;21336;-71
2022/02/21 03:02:01;;;;;;;0.93;0.80;;;;;;;7.31;82.20;98205.61;1731448;82;21812;-71
2022/02/21 03:04:29;;;;;;;2.40;0.57;;;;;;;7.30;82.21;98203.48;1729963;82;21632;-71
2022/02/21 03:06:58;;;;;;;1.57;0.60;;;;;;;7.30;82.17;98191.09;1717811;82;21488;-71
2022/02/21 03:09:23;;;;;;;1.50;0.80;;;;;;;7.30;82.17;98179.52;1712528;82;21091;-72
2022/02/21 03:11:49;;;;;;;0.70;0.50;;;;;;;7.30;82.20;98203.48;1722237;82;21447;-71
2022/02/21 03:14:15;;;;;;;0.80;0.73;;;;;;;7.30;82.25;98184.66;1725000;82;21016;-71
2022/02/21 03:16:40;;;;;;;2.43;0.60;;;;;;;7.31;82.29;98182.48;1705665;82;22390;-71
2022/02/21 03:19:07;;;;;;;2.90;1.30;;;;;;;7.30;82.33;98180.80;1716917;82;21687;-71
2022/02/21 03:21:33;;;;;;;1.27;0.70;;;;;;;7.31;82.30;98161.46;1722176;82;21580;-71
2022/02/21 03:23:59;;;;;;;1.17;0.60;;;;;;;7.31;82.30;98149.89;1711567;82;21048;-71
2022/02/21 03:26:25;;;;;;;0.90;0.70;;;;;;;7.31;82.31;98156.77;1711134;82;21000;-71
2022/02/21 03:28:51;;;;;;;1.80;0.70;;;;;;;7.30;82.30;98148.23;1711343;82;21125;-72
2022/02/21 03:31:17;;;;;;;1.57;0.80;;;;;;;7.30;82.33;98143.53;1718884;82;21702;-71
2022/02/21 03:33:44;;;;;;;0.77;0.77;;;;;;;7.31;82.34;98138.78;1707374;82;20930;-71
2022/02/21 03:36:10;;;;;;;0.85;0.75;;;;;;;7.31;82.39;98135.76;1716388;82;21048;-71
2022/02/21 03:38:39;;;;;;;1.20;0.70;;;;;;;7.33;82.38;98142.57;1703882;82;21577;-71
2022/02/21 03:41:05;;;;;;;1.10;0.88;;;;;;;7.32;82.40;98125.03;1715496;82;21077;-72
2022/02/21 03:43:31;;;;;;;1.65;0.60;;;;;;;7.33;82.42;98122.84;1721166;82;21623;-71
2022/02/21 03:45:57;;;;;;;1.32;0.80;;;;;;;7.35;82.49;98117.63;1746955;80;21048;-71
2022/02/21 03:48:23;;;;;;;0.67;0.40;;;;;;;7.36;82.46;98125.73;1713640;80;21746;-71
2022/02/21 03:50:50;;;;;;;1.10;0.88;;;;;;;7.35;82.46;98114.61;1719732;82;21873;-72
2022/02/21 03:53:16;;;;;;;0.73;0.40;;;;;;;7.37;82.53;98104.27;1729347;82;20907;-71
2022/02/21 03:55:42;;;;;;;2.75;0.70;;;;;;;7.37;82.49;98090.96;1718700;82;20970;-71
2022/02/21 03:58:11;;;;;;;2.27;0.50;;;;;;;7.39;82.53;98096.88;1717524;82;21486;-72
2022/02/21 04:00:38;;;;;;;1.07;0.60;;;;;;;7.39;82.56;98085.30;1719697;82;21513;-71
2022/02/21 04:03:04;;;;;;;3.00;0.75;;;;;;;7.39;82.55;98080.16;1709932;82;21351;-71
2022/02/21 04:05:34;;;;;;;48.42;43.42;;;;;;;7.40;82.56;98071.55;1715385;82;21584;-71
2022/02/21 04:08:00;;;;;;;1.20;0.60;;;;;;;7.41;82.59;98056.50;1721599;82;21004;-71
2022/02/21 04:10:26;;;;;;;2.00;0.70;;;;;;;7.44;82.75;98060.68;1742392;82;21825;-71
2022/02/21 04:12:52;;;;;;;1.37;0.60;;;;;;;7.44;82.62;98046.54;1713520;82;21057;-71
2022/02/21 04:15:18;;;;;;;2.03;0.60;;;;;;;7.46;82.65;98061.45;1722470;82;20941;-71
2022/02/21 04:17:50;;;;;;;0.75;0.50;;;;;;;7.47;82.75;98048.97;1727841;82;21080;-72
2022/02/21 04:20:23;;;;;;;2.25;0.60;;;;;;;7.49;82.63;98056.17;1683640;82;21480;-71
2022/02/21 04:22:49;;;;;;;1.00;0.50;;;;;;;7.51;82.67;98039.77;1729193;82;20897;-71
2022/02/21 04:25:17;;;;;;;1.25;0.75;;;;;;;7.54;82.71;98038.34;1726364;82;21386;-71
2022/02/21 04:27:49;;;;;;;1.82;0.80;;;;;;;7.56;82.71;98040.40;1726629;81;21426;-71
2022/02/21 04:30:19;;;;;;;1.50;1.00;;;;;;;7.59;82.70;98042.84;1734951;82;21488;-71
2022/02/21 04:32:48;;;;;;;1.17;0.65;;;;;;;7.60;82.71;98038.08;1727703;82;21583;-72
2022/02/21 04:35:18;;;;;;;0.93;0.65;;;;;;;7.61;82.68;98029.91;1737142;82;21112;-71
2022/02/21 04:37:45;;;;;;;3.10;0.90;;;;;;;7.63;82.69;98012.67;1721765;82;21517;-71
2022/02/21 04:40:16;;;;;;;1.00;0.65;;;;;;;7.64;82.79;98013.89;1736768;81;21045;-71
2022/02/21 04:42:43;;;;;;;1.02;0.80;;;;;;;7.66;82.72;98018.96;1724787;82;20989;-71
2022/02/21 04:45:09;;;;;;;;;;;;;;;7.68;82.69;98010.72;1724920;81;21326;-71
2022/02/21 04:47:37;;;;;;;2.83;0.80;;;;;;;7.70;82.76;98008.08;1739196;81;20210;-71
2022/02/21 04:50:07;;;;;;;2.85;1.02;;;;;;;7.74;82.74;98013.47;1733723;82;21092;-71
2022/02/21 04:52:34;;;;;;;2.77;0.95;;;;;;;7.75;82.72;98006.97;1738938;81;21033;-71
2022/02/21 04:55:01;;;;;;;2.27;0.93;;;;;;;7.77;82.64;98012.88;1717857;82;21104;-71
2022/02/21 04:57:29;;;;;;;3.05;1.20;;;;;;;7.77;82.66;98011.59;1736117;81;21509;-71
2022/02/21 04:59:55;;;;;;;2.03;0.93;;;;;;;7.78;82.68;98001.68;1735103;82;20961;-71
2022/02/21 05:02:21;;;;;;;1.70;0.77;;;;;;;7.81;82.72;98010.96;1723588;80;21000;-71
2022/02/21 05:04:47;;;;;;;2.17;1.15;;;;;;;7.81;82.67;98007.10;1732204;81;20937;-71
2022/02/21 05:07:14;;;;;;;2.15;0.98;;;;;;;7.80;82.66;98004.98;1740598;81;21547;-71
2022/02/21 05:09:41;;;;;;;2.10;1.20;;;;;;;7.80;82.67;98008.84;1725823;82;21532;-72
2022/02/21 05:12:08;;;;;;;1.57;0.95;;;;;;;7.80;82.71;98025.56;1725744;82;26575;-70
2022/02/21 05:14:34;;;;;;;2.17;1.10;;;;;;;7.81;82.71;98014.82;1728852;82;21060;-71
2022/02/21 05:17:00;;;;;;;1.13;0.80;;;;;;;7.80;82.67;98016.55;1727444;82;21055;-71
2022/02/21 05:19:26;;;;;;;2.10;0.60;;;;;;;7.80;82.70;98016.55;1722455;82;21492;-72
2022/02/21 05:21:55;;;;;;;1.90;0.70;;;;;;;7.82;82.73;98007.48;1727338;82;21484;-72
2022/02/21 05:24:21;;;;;;;1.72;0.55;;;;;;;7.84;82.76;98003.94;1736508;82;21497;-71
2022/02/21 05:26:49;;;;;;;4.35;0.90;;;;;;;7.86;82.73;98016.73;1733468;82;21732;-71
2022/02/21 05:29:15;;;;;;;1.15;0.60;;;;;;;7.86;82.68;98038.14;1729843;82;21065;-70
2022/02/21 05:31:42;;;;;;;1.72;0.70;;;;;;;7.86;82.68;98043.28;1733073;82;21453;-70
2022/02/21 05:34:08;;;;;;;1.87;0.53;;;;;;;7.87;82.70;98047.98;1723870;80;21097;-71
2022/02/21 05:36:34;;;;;;;2.10;0.60;;;;;;;7.87;82.71;98042.84;1726735;80;21112;-71
2022/02/21 05:39:03;;;;;;;1.60;0.57;;;;;;;7.85;82.66;98044.19;1736547;82;21034;-70
2022/02/21 05:41:29;;;;;;;1.75;0.50;;;;;;;7.86;82.75;98059.17;1734112;82;21053;-70
2022/02/21 05:43:55;;;;;;;1.43;0.60;;;;;;;7.87;82.76;98061.68;1735053;82;21143;-70
2022/02/21 05:46:21;;;;;;;1.60;0.40;;;;;;;7.89;82.75;98071.90;1722487;82;20968;-70
2022/02/21 05:48:47;;;;;;;1.50;0.70;;;;;;;7.89;82.75;98047.01;1740177;82;20921;-71
2022/02/21 05:51:13;;;;;;;0.73;0.43;;;;;;;7.90;82.72;98064.56;1732210;82;21001;-71
2022/02/21 05:53:43;;;;;;;1.40;0.60;;;;;;;7.90;82.71;98069.71;1727140;81;21077;-71
2022/02/21 05:56:07;;;;;;;2.50;0.50;;;;;;;7.90;82.66;98078.72;1732225;82;21298;-71
2022/02/21 05:58:33;;;;;;;0.93;0.40;;;;;;;7.90;82.62;98094.98;1725229;81;21041;-70
2022/02/21 06:01:00;;;;;;;0.95;0.40;;;;;;;7.89;82.62;98074.02;1732147;82;22070;-70
2022/02/21 06:03:26;;;;;;;1.93;0.50;;;;;;;7.88;82.57;98094.67;1740003;82;21000;-71
2022/02/21 06:05:53;;;;;;;1.87;0.90;;;;;;;7.88;82.56;98107.09;1736044;80;20875;-71
2022/02/21 06:08:19;;;;;;;2.00;0.80;;;;;;;7.89;82.50;98105.34;1723307;81;21056;-71
2022/02/21 06:10:44;;;;;;;0.80;0.60;;;;;;;7.88;82.46;98105.80;1745676;82;20999;-71
2022/02/21 06:13:12;;;;;;;0.85;0.40;;;;;;;7.87;82.42;98118.73;1724278;82;21092;-71
2022/02/21 06:15:38;;;;;;;1.27;0.50;;;;;;;7.84;82.25;98120.98;1720251;81;21059;-71
2022/02/21 06:18:04;;;;;;;1.90;0.70;;;;;;;7.81;82.30;98122.41;1745169;80;21008;-71
2022/02/21 06:20:30;;;;;;;2.20;0.82;;;;;;;7.78;82.20;98103.73;1731571;81;21024;-71
2022/02/21 06:22:57;;;;;;;1.82;1.05;;;;;;;7.72;82.07;98094.55;1731299;81;21045;-71
2022/02/21 06:25:23;;;;;;;1.82;1.10;;;;;;;7.69;82.07;98121.70;1744563;80;20977;-70
2022/02/21 06:27:49;;;;;;;1.40;0.80;;;;;;;7.65;82.08;98094.45;1732831;81;20910;-70
2022/02/21 06:30:16;;;;;;;2.43;0.30;;;;;;;7.61;81.98;98114.32;1709335;82;20936;-70
2022/02/21 06:32:42;;;;;;;;;;;;;;;7.56;81.94;98138.12;1748536;80;21453;-70
2022/02/21 06:35:10;;;;;;;0.62;0.50;;;;;;;7.53;81.84;98117.67;1723906;82;20437;-70
2022/02/21 06:37:52;;;;;;;0.85;0.33;;;;;;;7.50;81.96;98105.41;1737180;82;21053;-70
2022/02/21 06:40:17;;;;;;;1.20;0.30;;;;;;;7.47;81.93;98131.25;1728449;81;21093;-70
2022/02/21 06:42:44;;;;;;;0.50;0.40;;;;;;;7.43;81.85;98146.42;1728408;81;21033;-70
2022/02/21 06:45:10;;;;;;;0.35;0.30;;;;;;;7.39;81.70;98127.72;1758799;79;20995;-71
2022/02/21 06:47:37;;;;;;;0.75;0.30;;;;;;;7.37;81.77;98131.25;1752287;79;20935;-71
2022/02/21 06:50:06;;;;;;;0.75;0.30;;;;;;;7.34;81.80;98147.64;1761142;79;21028;-70
2022/02/21 06:52:32;;;;;;;1.20;0.60;;;;;;;7.30;81.74;98162.81;1751683;79;20874;-70
2022/02/21 06:55:00;;;;;;;1.12;0.30;;;;;;;7.28;81.71;98169.75;1754783;79;21029;-70
2022/02/21 06:57:27;;;;;;;2.35;0.45;;;;;;;7.26;81.71;98192.14;1755702;79;20903;-70
2022/02/21 06:59:54;;;;;;;1.42;0.30;;;;;;;7.25;81.69;98187.91;1761299;79;21387;-70
2022/02/21 07:02:20;;;;;;;0.78;0.40;;;;;;;7.23;81.69;98186.68;1741191;80;26949;-70
2022/02/21 07:04:47;;;;;;;0.40;0.30;;;;;;;7.20;81.62;98203.96;1752583;80;21080;-71
2022/02/21 07:07:13;;;;;;;0.93;0.70;;;;;;;7.18;81.61;98216.87;1746900;79;21404;-72
2022/02/21 07:09:39;;;;;;;0.80;0.30;;;;;;;7.17;81.67;98229.78;1761084;80;21022;-71
2022/02/21 07:12:07;;;;;;;0.87;0.40;;;;;;;7.17;81.68;98229.78;1768042;80;20957;-71
2022/02/21 07:14:33;;;;;;;0.47;0.28;;;;;;;7.17;81.59;98220.34;1717931;81;20915;-70
2022/02/21 07:16:59;;;;;;;0.30;0.30;;;;;;;7.19;81.62;98226.70;1741539;81;20940;-70
2022/02/21 07:19:25;;;;;;;1.10;0.35;;;;;;;7.19;81.47;98226.25;1736981;81;20875;-70
2022/02/21 07:21:52;;;;;;;0.70;0.50;;;;;;;7.22;81.47;98224.84;1736396;81;20937;-70
2022/02/21 07:24:18;;;;;;;1.57;0.88;;;;;;;7.25;81.38;98230.31;1734313;81;20922;-70
2022/02/21 07:26:44;;;;;;;1.80;0.90;;;;;;;7.28;81.35;98225.84;1742170;81;20903;-70
2022/02/21 07:29:10;;;;;;;1.00;0.60;;;;;;;7.30;81.32;98225.79;1737920;80;21547;-70
2022/02/21 07:31:36;;;;;;;1.90;0.50;;;;;;;7.33;81.23;98250.53;1744754;81;20910;-70
2022/02/21 07:34:02;;;;;;;1.43;0.33;;;;;;;7.34;81.23;98234.21;1743047;81;21000;-70
2022/02/21 07:36:29;;;;;;;;;;;;;;;7.36;81.14;98234.98;1750751;81;20902;-71
2022/02/21 07:38:56;;;;;;;1.60;0.50;;;;;;;7.38;80.92;98246.88;1742473;81;20126;-70
2022/02/21 07:41:22;;;;;;;0.82;0.35;;;;;;;7.37;81.12;98243.09;1738673;81;20938;-71
2022/02/21 07:43:48;;;;;;;1.50;0.50;;;;;;;7.36;80.86;98213.13;1746797;80;20870;-71
2022/02/21 07:46:13;;;;;;;0.83;0.40;;;;;;;7.34;81.01;98236.78;1746144;81;20878;-71
2022/02/21 07:48:39;;;;;;;0.65;0.45;;;;;;;7.33;80.95;98250.53;1739976;81;20898;-70
2022/02/21 07:51:06;;;;;;;0.90;0.50;;;;;;;7.32;81.01;98258.70;1737326;81;20956;-70
2022/02/21 07:53:32;;;;;;;;;;;;;;;7.31;80.82;98266.02;1734546;81;21422;-70
2022/02/21 07:55:58;;;;;;;4.20;0.43;;;;;;;7.29;80.71;98274.24;1733880;81;20803;-70
2022/02/21 07:58:24;;;;;;;2.80;1.30;;;;;;;7.29;80.94;98302.06;1728930;81;20908;-70
2022/02/21 08:00:52;;;;;;;1.40;0.90;;;;;;;7.25;80.82;98323.68;1738985;81;21080;-70
2022/02/21 08:03:17;;;;;;;0.65;0.40;;;;;;;7.18;80.71;98324.81;1737305;81;21065;-70
2022/02/21 08:05:44;;;;;;;0.98;0.40;;;;;;;7.09;80.61;98333.33;1739296;81;20929;-70
2022/02/21 08:08:11;;;;;;;;;;;;;;;6.95;80.67;98371.10;1742431;81;21290;-70
2022/02/21 08:10:36;;;;;;;0.65;0.25;;;;;;;6.78;80.56;98340.89;1737408;81;20169;-70
2022/02/21 08:13:03;;;;;;;0.00;0.00;;;;;;;6.59;80.53;98366.88;1746355;81;21068;-70
2022/02/21 08:15:29;;;;;;;0.20;0.10;;;;;;;6.44;80.56;98367.42;1736613;81;21084;-70
2022/02/21 08:17:56;;;;;;;1.17;0.30;;;;;;;6.34;80.70;98371.20;1726781;81;21089;-70
2022/02/21 08:20:24;;;;;;;0.47;0.20;;;;;;;6.26;80.72;98371.47;1739600;81;21398;-70
2022/02/21 08:22:52;;;;;;;2.83;0.40;;;;;;;6.21;80.76;98360.55;1733118;81;21088;-70
2022/02/21 08:25:18;;;;;;;1.05;0.50;;;;;;;6.22;80.84;98373.78;1737890;81;21101;-70
2022/02/21 08:27:46;;;;;;;2.35;0.53;;;;;;;6.24;80.76;98375.81;1733718;81;21025;-70
2022/02/21 08:30:17;;;;;;;3.08;1.02;;;;;;;6.25;80.80;98386.47;1742489;81;21370;-70
2022/02/21 08:32:44;;;;;;;2.37;1.12;;;;;;;6.30;80.86;98389.27;1745331;80;20933;-70
2022/02/21 08:35:21;;;;;;;3.37;1.45;;;;;;;6.36;80.79;98393.80;1756436;80;21386;-70
2022/02/21 08:37:47;;;;;;;;;;;;;;;6.40;80.74;98400.52;1752104;80;21330;-70
2022/02/21 08:40:16;;;;;;;1.92;0.93;;;;;;;6.41;80.57;98407.32;1749485;80;20719;-71
2022/02/21 08:42:44;;;;;;;1.77;0.98;;;;;;;6.42;80.66;98407.71;1735456;81;20905;-72
2022/02/21 08:45:11;;;;;;;1.62;0.80;;;;;;;6.43;80.67;98420.94;1736422;80;20957;-71
2022/02/21 08:47:39;;;;;;;1.37;0.70;;;;;;;6.51;80.81;98404.38;1734027;81;21100;-71
2022/02/21 08:50:10;;;;;;;1.10;0.60;;;;;;;6.63;80.79;98409.53;1733189;81;20903;-71
2022/02/21 08:52:41;;;;;;;3.10;0.60;;;;;;;6.69;80.57;98408.48;1726852;81;21346;-71
2022/02/21 08:55:15;;;;;;;3.95;0.68;;;;;;;6.75;80.62;98407.81;1746390;81;20945;-71
2022/02/21 08:57:42;;;;;;;4.08;0.90;;;;;;;6.87;80.44;98451.46;1746445;81;20922;-71
2022/02/21 09:00:11;;;;;;;0.82;0.30;;;;;;;6.80;80.02;98444.86;1738946;81;20949;-71
2022/02/21 09:02:37;;;;;;;1.25;0.62;;;;;;;6.60;79.81;98464.41;1735657;81;20928;-70
2022/02/21 09:05:08;;;;;;;0.20;0.10;;;;;;;6.43;79.83;98457.72;1743579;80;20925;-71
2022/02/21 09:07:33;;;;;;;;;;;;;;;6.27;79.98;98471.50;1745187;80;20948;-71
2022/02/21 09:10:09;;;;;;;1.65;0.50;;;;;;;6.20;79.97;98482.89;1732873;80;20121;-71
2022/02/21 09:12:35;;;;;;;1.42;0.55;;;;;;;6.14;79.91;98486.09;1729530;80;21234;-71
2022/02/21 09:15:01;;;;;;;0.93;0.55;;;;;;;6.04;79.96;98477.02;1725959;80;21346;-71
2022/02/21 09:17:42;;;;;;;2.40;0.62;;;;;;;5.99;80.04;98483.57;1729221;80;21426;-71
2022/02/21 09:20:09;;;;;;;1.03;0.40;;;;;;;5.93;79.93;98473.50;1758267;80;20926;-71
2022/02/21 09:22:35;;;;;;;3.17;0.90;;;;;;;5.89;80.02;98471.92;1718676;82;20914;-71
2022/02/21 09:25:02;;;;;;;2.53;0.70;;;;;;;5.87;79.86;98474.50;1730317;81;20897;-71
2022/02/21 09:27:30;;;;;;;4.35;0.65;;;;;;;5.85;79.91;98450.62;1730170;81;20907;-71
2022/02/21 09:29:56;;;;;;;4.13;0.93;;;;;;;5.86;80.04;98452.75;1731513;82;20902;-71
2022/02/21 09:32:23;;;;;;;4.57;1.60;;;;;;;5.89;80.02;98462.95;1737874;82;20952;-71
2022/02/21 09:34:49;;;;;;;6.58;1.10;;;;;;;5.91;80.00;98476.56;1712043;81;21068;-71
2022/02/21 09:37:15;;;;;;;5.22;1.17;;;;;;;5.94;79.90;98477.30;1723290;82;21085;-71
2022/02/21 09:39:47;;;;;;;3.90;1.00;;;;;;;5.96;79.74;98483.22;1709899;81;21398;-71
2022/02/21 09:42:14;;;;;;;5.90;1.42;;;;;;;5.98;79.57;98471.19;1740128;80;21084;-70
2022/02/21 09:44:41;;;;;;;5.20;1.15;;;;;;;5.95;79.54;98481.55;1747325;80;21061;-70
2022/02/21 09:47:27;;;;;;;4.92;1.00;;;;;;;5.99;79.52;98483.57;1734962;80;21036;-70
2022/02/21 09:49:55;;;;;;;3.90;1.07;;;;;;;6.00;79.25;98507.50;1714324;82;22247;-71
2022/02/21 09:52:30;;;;;;;4.90;1.30;;;;;;;5.98;79.40;98516.52;1720116;82;21386;-71
2022/02/21 09:54:59;;;;;;;3.08;1.12;;;;;;;6.01;79.37;98515.14;1727050;81;20954;-71
2022/02/21 09:57:27;;;;;;;6.80;1.15;;;;;;;6.08;79.42;98524.33;1729006;82;21365;-71
2022/02/21 09:59:53;;;;;;;7.37;1.87;;;;;;;6.15;79.38;98542.50;1728909;82;20954;-71
2022/02/21 10:02:29;;;;;;;7.40;2.75;;;;;;;6.20;79.10;98520.54;1732093;81;20965;-71
2022/02/21 10:05:17;;;;;;;6.08;1.98;;;;;;;6.20;79.10;98552.62;1729595;81;20886;-71
2022/02/21 10:07:44;;;;;;;8.13;3.27;;;;;;;6.23;79.19;98536.68;1716437;81;20942;-71
2022/02/21 10:10:14;;;;;;;3.90;1.22;;;;;;;6.31;79.14;98553.09;1719481;82;20953;-71
2022/02/21 10:12:52;;;;;;;3.22;0.90;;;;;;;6.35;79.14;98548.70;1726269;81;20961;-71
2022/02/21 10:15:22;;;;;;;4.22;1.00;;;;;;;6.38;79.06;98557.58;1727424;82;20984;-71
2022/02/21 10:18:17;;;;;;;8.23;1.45;;;;;;;6.40;79.12;98557.09;1719010;82;20878;-71
2022/02/21 10:20:59;;;;;;;5.05;1.20;;;;;;;6.49;79.19;98565.78;1722615;82;20914;-71
2022/02/21 10:23:30;;;;;;;6.05;1.30;;;;;;;6.64;79.16;98564.00;1726894;82;20902;-70
2022/02/21 10:26:03;;;;;;;7.22;1.57;;;;;;;6.78;79.13;98551.52;1724353;82;20960;-70
2022/02/21 10:28:42;;;;;;;4.20;1.02;;;;;;;6.91;78.79;98548.08;1724755;82;21049;-70
2022/02/21 10:31:19;;;;;;;8.08;1.27;;;;;;;6.95;78.26;98567.64;1724462;82;21678;-70
2022/02/21 10:34:06;;;;;;;5.95;1.62;;;;;;;6.94;78.25;98555.24;1729395;81;21413;-71
2022/02/21 10:36:45;;;;;;;2.85;1.17;;;;;;;6.93;78.04;98569.42;1708596;82;21089;-70
2022/02/21 10:39:19;;;;;;;4.12;1.85;;;;;;;6.86;78.09;98567.51;1728913;81;20945;-70
2022/02/21 10:41:52;;;;;;;4.90;1.72;;;;;;;6.82;77.91;98582.63;1734189;82;21446;-70
2022/02/21 10:44:29;;;;;;;4.35;1.50;;;;;;;6.73;77.23;98578.27;1729172;82;21409;-71
2022/02/21 10:47:13;;;;;;;9.20;1.82;;;;;;;6.75;77.98;98591.91;1727471;81;21041;-71
2022/02/21 10:49:55;;;;;;;5.90;1.52;;;;;;;6.81;78.03;98586.53;1731684;82;21017;-70
2022/02/21 10:52:30;;;;;;;5.42;2.10;;;;;;;6.86;77.51;98592.36;1728882;81;21031;-71
2022/02/21 10:55:00;;;;;;;7.80;1.72;;;;;;;6.88;77.83;98596.55;1730774;81;21052;-72
2022/02/21 10:57:27;;;;;;;7.35;1.85;;;;;;;6.94;77.94;98593.78;1737590;81;20938;-71
2022/02/21 10:59:56;;;;;;;5.28;1.87;;;;;;;7.02;77.68;98588.38;1723771;81;21520;-71
2022/02/21 11:02:32;;;;;;;4.62;1.47;;;;;;;7.08;77.80;98589.46;1700441;82;20979;-71
2022/02/21 11:05:00;;;;;;;4.97;1.67;;;;;;;7.15;77.54;98587.08;1660869;84;21395;-71
2022/02/21 11:07:27;;;;;;;10.08;2.25;;;;;;;7.13;77.59;98595.73;1667274;84;20973;-71
2022/02/21 11:09:58;;;;;;;3.83;1.20;;;;;;;7.14;77.04;98599.53;1680441;83;20939;-71
2022/02/21 11:12:26;;;;;;;5.53;1.40;;;;;;;7.17;77.38;98596.86;1697577;82;20866;-71
2022/02/21 11:34:09;;;;;;;6.67;1.75;;;;;;;7.54;75.21;98614.83;1882270;75;22614;-73
2022/02/21 11:37:37;;;;;;;6.87;1.45;;;;;;;7.44;75.90;98619.90;1850658;75;21424;-74
2022/02/21 11:40:06;;;;;;;3.72;1.37;;;;;;;7.36;75.95;98621.45;1846258;75;20888;-74
2022/02/21 11:42:34;;;;;;;5.35;1.62;;;;;;;7.31;76.00;98633.18;1832576;75;20897;-74
2022/02/21 11:45:05;;;;;;;5.58;1.20;;;;;;;7.30;75.47;98608.81;1852037;76;20955;-74
2022/02/21 11:47:39;;;;;;;4.42;2.20;;;;;;;7.39;75.99;98632.08;1849684;76;21005;-74
2022/02/21 11:50:24;;;;;;;2.98;1.22;;;;;;;7.45;75.91;98637.84;1834531;77;21489;-74
2022/02/21 11:52:53;;;;;;;5.75;1.57;;;;;;;7.53;76.01;98643.56;1838108;77;20859;-73
2022/02/21 11:55:35;;;;;;;5.95;1.65;;;;;;;7.61;75.42;98619.69;1857367;77;20920;-73
2022/02/21 11:58:23;;;;;;;2.40;1.00;;;;;;;7.59;75.51;98622.77;1846028;77;20991;-73
2022/02/21 12:00:54;;;;;;;2.35;0.95;;;;;;;7.60;75.44;98641.16;1850129;77;21420;-74
2022/02/21 12:03:26;;;;;;;2.70;1.10;;;;;;;7.54;75.04;98651.67;1842323;76;21398;-74
2022/02/21 12:06:04;;;;;;;3.85;1.17;;;;;;;7.49;74.81;98639.41;1847075;77;20905;-74
2022/02/21 12:08:38;;;;;;;4.65;1.20;;;;;;;7.39;74.23;98636.77;1840730;76;20921;-73